Time,TemperatureF,DewpointF,PressureIn,WindDirection,WindDirectionDegrees,WindSpeedMPH,WindSpeedGustMPH,Humidity,HourlyPrecipIn,Conditions,Clouds,dailyrainin,SoftwareType,DateUTC
2013-06-25 00:43:00,60.0,57.0,29.93,North,0,0.0,-999.0,89,0.00,,,-99.99,,2013-06-25 07:43:00,
2013-06-25 00:52:00,60.0,57.0,29.93,North,0,0.0,-999.0,89,0.00,,,-99.99,,2013-06-25 07:52:00,
2013-06-25 01:43:00,60.0,58.0,29.93,North,0,0.0,-999.0,92,0.00,,,-99.99,,2013-06-25 08:43:00,
2013-06-25 01:52:00,60.0,58.0,29.93,North,0,0.0,-999.0,92,0.00,,,-99.99,,2013-06-25 08:52:00,
2013-06-25 02:43:00,60.0,58.0,29.93,West,270,2.0,-999.0,93,0.00,,,-99.99,,2013-06-25 09:43:00,
2013-06-25 02:52:00,60.0,58.0,29.93,West,270,2.0,-999.0,93,0.00,,,-99.99,,2013-06-25 09:52:00,
2013-06-25 03:33:00,60.0,58.0,29.93,West,270,1.0,-999.0,93,0.00,,,-99.99,,2013-06-25 10:33:00,
2013-06-25 03:42:00,60.0,58.0,29.93,West,270,1.0,-999.0,93,0.00,,,-99.99,,2013-06-25 10:42:00,
2013-06-25 03:52:00,60.0,58.0,29.93,West,270,1.0,-999.0,93,0.00,,,-99.99,,2013-06-25 10:52:00,
2013-06-25 04:34:00,60.0,58.0,29.94,West,270,2.0,-999.0,94,0.00,,,-99.99,,2013-06-25 11:34:00,
2013-06-25 04:43:00,60.0,58.0,29.94,West,270,2.0,-999.0,94,0.00,,,-99.99,,2013-06-25 11:43:00,
2013-06-25 04:52:00,60.0,58.0,29.94,West,270,2.0,-999.0,94,0.00,,,-99.99,,2013-06-25 11:52:00,
2013-06-25 04:55:00,60.0,58.0,29.95,North,0,0.0,-999.0,94,0.00,,,-99.99,,2013-06-25 11:55:00,
2013-06-25 05:43:00,60.0,58.0,29.95,North,0,0.0,-999.0,94,0.00,,,-99.99,,2013-06-25 12:43:00,
2013-06-25 06:34:00,59.0,57.0,29.96,North,0,0.0,-999.0,94,0.00,,,-99.99,,2013-06-25 13:34:00,
2013-06-25 06:42:00,59.0,57.0,29.96,North,0,0.0,-999.0,94,0.00,,,-99.99,,2013-06-25 13:42:00,
2013-06-25 06:53:00,59.0,57.0,29.96,North,0,0.0,-999.0,94,0.00,,,-99.99,,2013-06-25 13:53:00,
2013-06-25 07:42:00,60.0,58.0,29.96,North,0,0.0,-999.0,94,0.00,,,-99.99,,2013-06-25 14:42:00,
2013-06-25 07:53:00,60.0,58.0,29.96,North,0,0.0,-999.0,94,0.00,,,-99.99,,2013-06-25 14:53:00,
2013-06-25 08:44:00,61.0,59.0,29.98,North,0,0.0,-999.0,94,0.00,,,-99.99,,2013-06-25 15:44:00,
2013-06-25 08:53:00,61.0,59.0,29.98,North,0,0.0,-999.0,94,0.00,,,-99.99,,2013-06-25 15:53:00,
2013-06-25 09:34:00,62.0,60.0,29.99,West,280,2.0,-999.0,92,0.00,,,-99.99,,2013-06-25 16:34:00,
2013-06-25 09:44:00,62.0,60.0,29.99,West,280,2.0,-999.0,92,0.00,,,-99.99,,2013-06-25 16:44:00,
2013-06-25 09:52:00,62.0,60.0,29.99,West,280,2.0,-999.0,92,0.00,,,-99.99,,2013-06-25 16:52:00,
2013-06-25 10:44:00,63.0,60.0,29.99,West,280,7.0,-999.0,89,0.01,,,-99.99,,2013-06-25 17:44:00,
2013-06-25 10:53:00,63.0,60.0,29.99,West,280,7.0,-999.0,89,0.01,,,-99.99,,2013-06-25 17:53:00,
2013-06-25 11:34:00,63.0,60.0,30.00,West,280,4.0,-999.0,90,0.00,,,-99.99,,2013-06-25 18:34:00,
2013-06-25 11:44:00,63.0,60.0,30.00,West,280,4.0,-999.0,90,0.00,,,-99.99,,2013-06-25 18:44:00,
2013-06-25 11:52:00,63.0,60.0,30.00,West,280,4.0,-999.0,90,0.00,,,-99.99,,2013-06-25 18:52:00,
2013-06-25 11:53:00,65.0,61.0,29.99,WNW,300,7.0,-999.0,86,0.00,,,-99.99,,2013-06-25 18:53:00,
2013-06-25 12:44:00,65.0,61.0,29.99,WNW,300,7.0,-999.0,86,0.00,,,-99.99,,2013-06-25 19:44:00,
2013-06-25 13:33:00,67.0,61.0,29.99,West,260,6.0,-999.0,81,0.00,,,-99.99,,2013-06-25 20:33:00,
2013-06-25 13:42:00,67.0,61.0,29.99,West,260,6.0,-999.0,81,0.00,,,-99.99,,2013-06-25 20:42:00,
2013-06-25 13:52:00,67.0,61.0,29.99,West,260,6.0,-999.0,81,0.00,,,-99.99,,2013-06-25 20:52:00,
2013-06-25 14:33:00,67.0,61.0,29.98,West,280,6.0,-999.0,82,0.00,,,-99.99,,2013-06-25 21:33:00,
2013-06-25 14:43:00,67.0,61.0,29.98,West,280,6.0,-999.0,82,0.00,,,-99.99,,2013-06-25 21:43:00,
2013-06-25 14:53:00,67.0,61.0,29.98,West,280,6.0,-999.0,82,0.00,,,-99.99,,2013-06-25 21:53:00,
2013-06-25 15:33:00,70.0,62.0,29.95,West,270,5.0,-999.0,77,0.00,,,-99.99,,2013-06-25 22:33:00,
2013-06-25 15:42:00,70.0,62.0,29.95,West,270,5.0,-999.0,77,0.00,,,-99.99,,2013-06-25 22:42:00,
2013-06-25 15:52:00,70.0,62.0,29.95,West,270,5.0,-999.0,77,0.00,,,-99.99,,2013-06-25 22:52:00,
2013-06-25 16:34:00,71.0,62.0,29.93,West,280,5.0,-999.0,72,0.00,,,-99.99,,2013-06-25 23:34:00,
2013-06-25 16:43:00,71.0,62.0,29.93,West,280,5.0,-999.0,72,0.00,,,-99.99,,2013-06-25 23:43:00,
2013-06-25 16:52:00,71.0,62.0,29.93,West,280,5.0,-999.0,72,0.00,,,-99.99,,2013-06-25 23:52:00,
2013-06-25 18:33:00,73.0,62.0,29.90,WSW,240,5.0,-999.0,69,0.00,,,-99.99,,2013-06-26 01:33:00,
2013-06-25 18:43:00,73.0,62.0,29.90,WSW,240,5.0,-999.0,69,0.00,,,-99.99,,2013-06-26 01:43:00,
2013-06-25 18:52:00,73.0,62.0,29.90,WSW,240,5.0,-999.0,69,0.00,,,-99.99,,2013-06-26 01:52:00,
2013-06-25 19:34:00,73.0,63.0,29.89,SSW,210,3.0,-999.0,70,0.00,,,-99.99,,2013-06-26 02:34:00,
2013-06-25 19:43:00,73.0,63.0,29.89,SSW,210,3.0,-999.0,70,0.00,,,-99.99,,2013-06-26 02:43:00,
2013-06-25 19:53:00,73.0,63.0,29.89,SSW,210,3.0,-999.0,70,0.00,,,-99.99,,2013-06-26 02:53:00,
2013-06-25 20:33:00,67.0,60.0,29.90,West,260,1.0,-999.0,78,0.00,,,-99.99,,2013-06-26 03:33:00,
2013-06-25 20:43:00,67.0,60.0,29.90,West,260,1.0,-999.0,78,0.00,,,-99.99,,2013-06-26 03:43:00,
2013-06-25 20:52:00,67.0,60.0,29.90,West,260,1.0,-999.0,78,0.00,,,-99.99,,2013-06-26 03:52:00,
2013-06-25 21:33:00,64.0,59.0,29.90,North,0,0.0,-999.0,85,0.00,,,-99.99,,2013-06-26 04:33:00,
2013-06-25 21:43:00,64.0,59.0,29.90,North,0,0.0,-999.0,85,0.00,,,-99.99,,2013-06-26 04:43:00,
2013-06-25 21:53:00,64.0,59.0,29.90,North,0,0.0,-999.0,85,0.00,,,-99.99,,2013-06-26 04:53:00,
2013-06-25 22:34:00,65.0,59.0,29.92,West,280,1.0,-999.0,80,0.00,,,-99.99,,2013-06-26 05:34:00,
2013-06-25 22:43:00,65.0,59.0,29.92,West,280,1.0,-999.0,80,0.00,,,-99.99,,2013-06-26 05:43:00,
2013-06-25 22:52:00,65.0,59.0,29.92,West,280,1.0,-999.0,80,0.00,,,-99.99,,2013-06-26 05:52:00,
2013-06-25 23:34:00,64.0,57.0,29.92,North,0,0.0,-999.0,79,0.00,,,-99.99,,2013-06-26 06:34:00,
2013-06-25 23:43:00,64.0,57.0,29.92,North,0,0.0,-999.0,79,0.00,,,-99.99,,2013-06-26 06:43:00,
2013-06-25 23:53:00,64.0,57.0,29.92,North,0,0.0,-999.0,79,0.00,,,-99.99,,2013-06-26 06:53:00,